createdAt,value
2023-11-15T10:40:48.014Z,3.10
2023-11-15T10:43:18.594Z,3.47
2023-11-15T10:45:47.266Z,3.35
2023-11-15T10:48:22.153Z,4.70
2023-11-15T10:50:58.285Z,4.53
2023-11-15T10:53:28.271Z,2.55
2023-11-15T10:55:58.798Z,3.95
2023-11-15T10:58:27.736Z,2.95
2023-11-15T11:00:56.602Z,7.57
2023-11-15T11:03:26.538Z,4.85
2023-11-15T11:06:05.146Z,2.47
2023-11-15T11:08:55.607Z,5.13
2023-11-15T11:11:34.968Z,2.78
2023-11-15T11:14:22.357Z,7.97
2023-11-15T11:16:50.741Z,4.35
2023-11-15T11:19:28.407Z,9.07
2023-11-15T11:22:18.945Z,12.27
2023-11-15T11:25:08.471Z,5.25
2023-11-15T11:27:38.147Z,7.40
2023-11-15T11:30:14.810Z,3.40
2023-11-15T11:32:45.894Z,4.55
2023-11-15T11:35:21.814Z,1.77
2023-11-15T11:37:57.079Z,4.45
2023-11-15T11:40:29.808Z,4.10
2023-11-15T11:43:12.275Z,3.20
2023-11-15T11:45:42.309Z,3.60
2023-11-15T11:48:37.986Z,3.95
2023-11-15T11:51:07.321Z,1.70
2023-11-15T11:53:48.197Z,2.78
2023-11-15T11:56:15.946Z,16.42
2023-11-15T11:58:44.110Z,2.17
2023-11-15T12:01:12.906Z,4.78
2023-11-15T12:03:49.093Z,2.67
2023-11-15T12:06:19.315Z,5.45
2023-11-15T12:08:50.518Z,4.38
2023-11-15T12:11:21.428Z,7.55
2023-11-15T12:13:51.960Z,5.25
2023-11-15T12:16:26.880Z,2.67
2023-11-15T12:19:02.788Z,3.58
2023-11-15T12:21:36.838Z,5.65
2023-11-15T12:24:11.398Z,4.40
2023-11-15T12:26:47.842Z,4.57
2023-11-15T12:29:27.907Z,3.00
2023-11-15T12:31:57.912Z,1.88
2023-11-15T12:34:26.193Z,2.10
2023-11-15T12:36:54.125Z,1.92
2023-11-15T12:39:23.466Z,4.25
2023-11-15T12:41:54.518Z,4.90
2023-11-15T12:44:22.702Z,3.15
2023-11-15T12:46:52.420Z,2.35
2023-11-15T12:49:27.339Z,2.50
2023-11-15T12:51:55.646Z,5.15
2023-11-15T12:54:23.222Z,7.05
2023-11-15T12:57:14.140Z,2.20
2023-11-15T12:59:43.473Z,3.45
2023-11-15T13:02:18.619Z,2.78
2023-11-15T13:04:51.865Z,3.53
2023-11-15T13:07:19.712Z,2.83
2023-11-15T13:09:47.784Z,6.93
2023-11-15T13:12:25.914Z,4.63
2023-11-15T13:14:54.760Z,2.65
2023-11-15T13:17:22.399Z,4.93
2023-11-15T13:19:50.119Z,5.78
2023-11-15T13:22:17.781Z,3.72
2023-11-15T13:24:49.975Z,4.38
2023-11-15T13:27:19.193Z,3.45
2023-11-15T13:29:47.117Z,1.83
2023-11-15T13:32:15.760Z,2.67
2023-11-15T13:34:45.911Z,3.00
2023-11-15T13:37:16.328Z,3.45
2023-11-15T13:39:43.824Z,2.00
2023-11-15T13:42:11.865Z,3.95
2023-11-15T13:44:39.788Z,2.72
2023-11-15T13:47:08.193Z,3.22
2023-11-15T13:49:35.780Z,2.13
2023-11-15T13:52:03.373Z,5.05
2023-11-15T13:54:31.780Z,3.05
2023-11-15T13:56:59.545Z,3.15
2023-11-15T13:59:29.541Z,2.97
2023-11-15T14:01:57.153Z,3.15
2023-11-15T14:04:24.703Z,3.53
2023-11-15T14:06:53.718Z,4.05
2023-11-15T14:09:25.920Z,2.55
2023-11-15T14:11:53.580Z,2.97
2023-11-15T14:14:21.110Z,3.42
2023-11-15T14:16:48.661Z,3.58
2023-11-15T14:19:16.820Z,14.88
2023-11-15T14:21:45.577Z,4.97
2023-11-15T14:24:13.288Z,5.63
2023-11-15T14:26:41.127Z,4.05
2023-11-15T14:29:09.839Z,7.82
2023-11-15T14:31:39.080Z,8.48
2023-11-15T14:34:08.565Z,4.55
2023-11-15T14:36:38.578Z,5.13
2023-11-15T14:39:08.766Z,4.97
2023-11-15T14:41:36.461Z,5.30
2023-11-15T14:44:05.176Z,4.88
2023-11-15T14:46:34.126Z,4.90
2023-11-15T14:49:01.816Z,8.38
2023-11-15T14:51:29.545Z,4.75
2023-11-15T14:53:57.303Z,9.52
2023-11-15T14:56:25.253Z,12.38
2023-11-15T14:58:54.546Z,14.55
2023-11-15T15:01:24.862Z,6.63
2023-11-15T15:03:53.532Z,15.20
2023-11-15T15:06:21.395Z,10.98
2023-11-15T15:08:49.011Z,5.20
2023-11-15T15:11:16.594Z,14.43
2023-11-15T15:13:44.116Z,14.20
2023-11-15T15:16:12.999Z,9.93
2023-11-15T15:18:41.793Z,4.80
2023-11-15T15:21:11.036Z,7.40
2023-11-15T15:23:38.760Z,5.70
2023-11-15T15:26:06.546Z,8.02
2023-11-15T15:28:34.487Z,9.40
2023-11-15T15:31:02.221Z,4.60
2023-11-15T15:33:30.134Z,6.03
2023-11-15T15:35:58.671Z,4.72
2023-11-15T15:38:26.958Z,7.40
2023-11-15T15:40:55.474Z,4.25
2023-11-15T15:43:23.072Z,5.47
2023-11-15T15:45:50.708Z,5.13
2023-11-15T15:48:19.095Z,4.25
2023-11-15T15:50:48.689Z,5.22
2023-11-15T15:53:16.213Z,7.97
2023-11-15T15:55:44.382Z,6.50
2023-11-15T15:58:12.081Z,4.45
2023-11-15T16:00:39.712Z,8.02
2023-11-15T16:03:07.472Z,5.75
2023-11-15T16:05:35.081Z,4.00
2023-11-15T16:08:02.727Z,4.32
2023-11-15T16:10:30.327Z,5.00
2023-11-15T16:12:58.686Z,4.97
2023-11-15T16:15:26.713Z,5.93
2023-11-15T16:17:55.500Z,7.50
2023-11-15T16:20:23.188Z,3.47
2023-11-15T16:22:52.710Z,5.15
2023-11-15T16:25:20.374Z,8.65
2023-11-15T16:27:47.953Z,5.82
2023-11-15T16:30:15.751Z,8.15
2023-11-15T16:32:44.069Z,7.80
2023-11-15T16:35:11.885Z,6.55
2023-11-15T16:37:42.869Z,7.20
2023-11-15T16:40:11.529Z,8.48
2023-11-15T16:42:40.228Z,8.82
2023-11-15T16:45:09.677Z,4.43
2023-11-15T16:47:40.142Z,3.90
2023-11-15T16:50:09.084Z,7.28
2023-11-15T16:52:36.882Z,8.43
2023-11-15T16:55:06.671Z,5.90
2023-11-15T16:57:34.750Z,10.52
2023-11-15T17:00:02.617Z,5.45
2023-11-15T17:02:31.055Z,9.00
2023-11-15T17:04:58.640Z,3.78
2023-11-15T17:07:26.168Z,6.28
2023-11-15T17:09:53.831Z,4.78
2023-11-15T17:12:24.438Z,8.73
2023-11-15T17:14:52.578Z,4.70
2023-11-15T17:17:20.172Z,9.10
2023-11-15T17:19:47.827Z,5.03
2023-11-15T17:22:15.521Z,7.38
2023-11-15T17:24:44.203Z,6.75
2023-11-15T17:27:11.959Z,7.85
2023-11-15T17:29:40.680Z,5.47
2023-11-15T17:32:08.474Z,9.13
2023-11-15T17:34:37.199Z,5.82
2023-11-15T17:37:04.759Z,7.28
2023-11-15T17:39:32.464Z,7.90
2023-11-15T17:42:00.089Z,7.80
2023-11-15T17:44:27.946Z,5.85
2023-11-15T17:46:55.818Z,8.40
2023-11-15T17:49:23.479Z,6.60
2023-11-15T17:51:51.004Z,10.32
2023-11-15T17:54:19.942Z,9.73
2023-11-15T17:56:47.695Z,9.75
2023-11-15T17:59:15.381Z,23.98
2023-11-15T18:01:43.962Z,11.85
2023-11-15T18:04:15.063Z,9.18
2023-11-15T18:06:43.241Z,18.52
2023-11-15T18:09:11.532Z,10.60
2023-11-15T18:11:39.560Z,15.50
2023-11-15T18:14:07.409Z,10.07
2023-11-15T18:16:35.326Z,12.00
2023-11-15T18:19:08.768Z,6.88
2023-11-15T18:21:36.991Z,6.40
2023-11-15T18:24:04.806Z,10.10
2023-11-15T18:26:33.762Z,8.57
2023-11-15T18:29:01.655Z,14.82
2023-11-15T18:31:29.622Z,11.02
2023-11-15T18:33:59.133Z,5.40
2023-11-15T18:36:27.486Z,7.57
2023-11-15T18:38:55.737Z,6.43
2023-11-15T18:41:23.508Z,6.00
2023-11-15T18:43:51.172Z,5.68
2023-11-15T18:46:18.885Z,7.03
2023-11-15T18:48:48.753Z,10.30
2023-11-15T18:51:23.125Z,7.15
2023-11-15T18:53:51.293Z,5.15
2023-11-15T18:56:19.285Z,9.18
2023-11-15T18:58:47.002Z,9.40
2023-11-15T19:01:14.785Z,6.97
2023-11-15T19:03:44.289Z,8.35
2023-11-15T19:06:11.999Z,6.68
2023-11-15T19:08:42.362Z,11.13
2023-11-15T19:11:10.088Z,9.05
2023-11-15T19:13:38.381Z,8.00
2023-11-15T19:16:08.705Z,10.20
2023-11-15T19:18:36.390Z,12.07
2023-11-15T19:21:04.987Z,9.68
2023-11-15T19:23:33.075Z,9.98
2023-11-15T19:26:00.781Z,8.73
2023-11-15T19:28:28.347Z,13.75
2023-11-15T19:30:55.856Z,30.05
2023-11-15T19:33:23.796Z,36.72
2023-11-15T19:35:51.733Z,28.17
2023-11-15T19:38:20.202Z,21.67
2023-11-15T19:40:48.250Z,19.63
2023-11-15T19:43:16.096Z,51.13
2023-11-15T19:45:43.701Z,39.10
2023-11-15T19:48:12.285Z,35.40
2023-11-15T19:50:41.162Z,33.65
2023-11-15T19:53:08.969Z,30.85
2023-11-15T19:55:36.935Z,26.73
2023-11-15T19:58:05.932Z,16.70
2023-11-15T20:00:36.864Z,15.02
2023-11-15T20:03:08.723Z,14.73
2023-11-15T20:05:39.952Z,12.02
2023-11-15T20:08:08.947Z,10.05
2023-11-15T20:10:37.346Z,13.95
2023-11-15T20:13:06.530Z,11.20
2023-11-15T20:15:35.028Z,9.63
2023-11-15T20:18:03.547Z,11.68
2023-11-15T20:20:32.562Z,8.48
2023-11-15T20:23:01.581Z,10.65
2023-11-15T20:25:29.734Z,11.90
2023-11-15T20:27:57.421Z,11.82
2023-11-15T20:30:26.913Z,11.35
2023-11-15T20:32:56.534Z,15.07
2023-11-15T20:35:24.767Z,10.77
2023-11-15T20:37:52.825Z,10.13
2023-11-15T20:40:23.301Z,8.25
2023-11-15T20:42:51.171Z,8.95
2023-11-15T20:45:18.750Z,8.90
2023-11-15T20:47:46.585Z,11.15
2023-11-15T20:50:14.495Z,7.93
2023-11-15T20:52:42.378Z,7.97
2023-11-15T20:55:13.778Z,19.10
2023-11-15T20:57:41.384Z,14.77
2023-11-15T21:00:14.375Z,10.70
2023-11-15T21:02:42.151Z,6.05
2023-11-15T21:05:11.948Z,10.32
2023-11-15T21:07:40.627Z,6.75
2023-11-15T21:10:08.993Z,6.93
2023-11-15T21:12:37.106Z,6.53
2023-11-15T21:15:06.227Z,3.95
2023-11-15T21:17:34.120Z,7.15
2023-11-15T21:20:11.190Z,7.63
2023-11-15T21:22:45.930Z,5.85
2023-11-15T21:25:14.011Z,4.97
2023-11-15T21:27:43.187Z,7.38
2023-11-15T21:30:13.249Z,6.93
2023-11-15T21:32:42.379Z,5.88
2023-11-15T21:35:11.893Z,7.90
2023-11-15T21:37:43.522Z,8.73
2023-11-15T21:40:15.283Z,6.60
2023-11-15T21:42:45.707Z,8.38
2023-11-15T21:45:14.846Z,11.30
2023-11-15T21:47:43.940Z,10.07
2023-11-15T21:50:16.056Z,10.95
2023-11-15T21:52:44.568Z,8.35
2023-11-15T21:55:12.291Z,14.98
2023-11-15T21:57:39.937Z,8.05
2023-11-15T22:00:10.153Z,11.32
2023-11-15T22:02:37.801Z,7.38
2023-11-15T22:05:06.253Z,6.10
2023-11-15T22:07:33.869Z,30.98
2023-11-15T22:10:01.442Z,7.75
2023-11-15T22:12:29.005Z,6.70
2023-11-15T22:14:56.705Z,8.77
2023-11-15T22:17:24.240Z,13.45
2023-11-15T22:19:52.242Z,8.57
2023-11-15T22:22:19.754Z,6.43
2023-11-15T22:24:47.777Z,11.25
2023-11-15T22:27:15.478Z,8.13
2023-11-15T22:29:43.145Z,6.25
2023-11-15T22:32:10.664Z,8.32
2023-11-15T22:34:38.276Z,8.25
2023-11-15T22:37:08.027Z,8.82
2023-11-15T22:39:35.679Z,7.22
2023-11-15T22:42:04.478Z,10.82
2023-11-15T22:44:31.977Z,8.05
2023-11-15T22:46:59.656Z,9.27
2023-11-15T22:49:27.208Z,8.35
2023-11-15T22:51:54.855Z,7.72
2023-11-15T22:54:22.421Z,8.07
2023-11-15T22:56:50.070Z,9.13
2023-11-15T22:59:17.657Z,10.52
2023-11-15T23:01:45.775Z,11.27
2023-11-15T23:04:16.661Z,8.18
2023-11-15T23:06:48.485Z,10.65
2023-11-15T23:09:16.647Z,11.00
2023-11-15T23:11:44.253Z,7.95
2023-11-15T23:14:11.820Z,10.38
2023-11-15T23:16:41.491Z,8.52
2023-11-15T23:19:09.480Z,10.55
2023-11-15T23:21:38.457Z,9.57
2023-11-15T23:24:07.692Z,8.02
2023-11-15T23:26:35.373Z,7.20
2023-11-15T23:29:02.964Z,9.40
2023-11-15T23:31:30.622Z,8.27
2023-11-15T23:33:58.195Z,10.23
2023-11-15T23:36:25.901Z,9.05
2023-11-15T23:38:53.795Z,10.98
2023-11-15T23:41:21.383Z,12.07
2023-11-15T23:43:50.754Z,8.95
2023-11-15T23:46:19.117Z,30.10
2023-11-15T23:48:46.793Z,21.10
2023-11-15T23:51:14.439Z,17.02
2023-11-15T23:53:42.121Z,16.85
2023-11-15T23:56:11.228Z,12.93
2023-11-15T23:58:38.851Z,8.43
